sensor_id;sensor_type;location;lat;lon;timestamp;pressure;altitude;pressure_sealevel;temperature;humidity
76590;BME280;65471;55.908;37.880;2023-03-03T00:00:56;98367.00;;;-0.09;75.53
76590;BME280;65471;55.908;37.880;2023-03-03T00:03:24;98368.63;;;-0.08;76.03
76590;BME280;65471;55.908;37.880;2023-03-03T00:05:52;98362.91;;;-0.05;75.72
76590;BME280;65471;55.908;37.880;2023-03-03T00:08:20;98360.66;;;-0.02;75.64
76590;BME280;65471;55.908;37.880;2023-03-03T00:10:47;98336.72;;;-0.15;75.66
76590;BME280;65471;55.908;37.880;2023-03-03T00:13:17;98354.16;;;-0.06;76.06
76590;BME280;65471;55.908;37.880;2023-03-03T00:15:44;98351.91;;;-0.02;75.85
76590;BME280;65471;55.908;37.880;2023-03-03T00:21:14;98337.16;;;-0.11;76.57
76590;BME280;65471;55.908;37.880;2023-03-03T00:23:45;98333.06;;;-0.14;77.12
76590;BME280;65471;55.908;37.880;2023-03-03T00:26:35;98331.41;;;-0.15;77.70
76590;BME280;65471;55.908;37.880;2023-03-03T00:31:49;98328.75;;;-0.15;78.24
76590;BME280;65471;55.908;37.880;2023-03-03T00:36:43;98317.69;;;-0.19;78.26
76590;BME280;65471;55.908;37.880;2023-03-03T00:39:32;98312.38;;;-0.19;78.39
76590;BME280;65471;55.908;37.880;2023-03-03T00:42:01;98315.88;;;-0.18;78.52
76590;BME280;65471;55.908;37.880;2023-03-03T00:44:37;98306.88;;;-0.17;78.88
76590;BME280;65471;55.908;37.880;2023-03-03T00:49:42;98301.19;;;-0.07;78.78
76590;BME280;65471;55.908;37.880;2023-03-03T00:52:13;98297.72;;;-0.08;78.72
76590;BME280;65471;55.908;37.880;2023-03-03T00:54:41;98295.06;;;-0.08;78.63
76590;BME280;65471;55.908;37.880;2023-03-03T00:57:09;98289.75;;;-0.08;79.19
76590;BME280;65471;55.908;37.880;2023-03-03T00:59:38;98293.41;;;-0.09;79.28
76590;BME280;65471;55.908;37.880;2023-03-03T01:02:05;98287.88;;;-0.07;79.22
76590;BME280;65471;55.908;37.880;2023-03-03T01:04:32;98278.72;;;-0.05;79.57
76590;BME280;65471;55.908;37.880;2023-03-03T01:06:59;98278.72;;;-0.05;79.45
76590;BME280;65471;55.908;37.880;2023-03-03T01:09:26;98281.16;;;-0.03;79.10
76590;BME280;65471;55.908;37.880;2023-03-03T01:11:53;98260.69;;;-0.16;79.45
76590;BME280;65471;55.908;37.880;2023-03-03T01:14:20;98273.00;;;-0.02;79.29
76590;BME280;65471;55.908;37.880;2023-03-03T01:16:47;98272.63;;;0.02;79.28
76590;BME280;65471;55.908;37.880;2023-03-03T01:19:15;98273.81;;;-0.01;79.63
76590;BME280;65471;55.908;37.880;2023-03-03T01:21:42;98268.31;;;0.01;79.74
76590;BME280;65471;55.908;37.880;2023-03-03T01:24:09;98266.25;;;0.03;79.66
76590;BME280;65471;55.908;37.880;2023-03-03T01:26:36;98263.41;;;0.04;79.46
76590;BME280;65471;55.908;37.880;2023-03-03T01:29:03;98256.47;;;0.10;79.55
76590;BME280;65471;55.908;37.880;2023-03-03T01:31:29;98247.91;;;0.14;79.57
76590;BME280;65471;55.908;37.880;2023-03-03T01:33:56;98262.59;;;0.17;79.09
76590;BME280;65471;55.908;37.880;2023-03-03T01:36:25;98249.13;;;0.12;79.40
76590;BME280;65471;55.908;37.880;2023-03-03T01:38:52;98263.66;;;0.16;79.58
76590;BME280;65471;55.908;37.880;2023-03-03T01:41:19;98252.59;;;0.19;79.52
76590;BME280;65471;55.908;37.880;2023-03-03T01:43:49;98243.59;;;0.13;79.41
76590;BME280;65471;55.908;37.880;2023-03-03T01:49:12;98250.94;;;0.11;80.47
76590;BME280;65471;55.908;37.880;2023-03-03T01:51:47;98247.69;;;0.09;80.08
76590;BME280;65471;55.908;37.880;2023-03-03T01:54:22;98244.00;;;0.10;80.59
76590;BME280;65471;55.908;37.880;2023-03-03T01:56:52;98252.38;;;0.14;80.47
76590;BME280;65471;55.908;37.880;2023-03-03T01:59:24;98231.75;;;0.16;80.72
76590;BME280;65471;55.908;37.880;2023-03-03T02:01:54;98242.38;;;0.16;80.72
76590;BME280;65471;55.908;37.880;2023-03-03T02:04:21;98235.22;;;0.16;81.40
76590;BME280;65471;55.908;37.880;2023-03-03T02:06:55;98230.31;;;0.13;80.98
76590;BME280;65471;55.908;37.880;2023-03-03T02:09:38;98237.88;;;0.23;81.29
76590;BME280;65471;55.908;37.880;2023-03-03T02:12:10;98236.69;;;0.26;81.16
76590;BME280;65471;55.908;37.880;2023-03-03T02:14:39;98220.31;;;0.29;80.79
76590;BME280;65471;55.908;37.880;2023-03-03T02:17:06;98231.16;;;0.27;81.00
76590;BME280;65471;55.908;37.880;2023-03-03T02:22:15;98212.53;;;0.27;81.20
76590;BME280;65471;55.908;37.880;2023-03-03T02:24:56;98212.13;;;0.30;81.04
76590;BME280;65471;55.908;37.880;2023-03-03T02:27:27;98209.06;;;0.33;80.93
76590;BME280;65471;55.908;37.880;2023-03-03T02:29:54;98211.31;;;0.37;80.91
76590;BME280;65471;55.908;37.880;2023-03-03T02:32:21;98200.25;;;0.40;81.04
76590;BME280;65471;55.908;37.880;2023-03-03T02:34:50;98202.50;;;0.43;80.72
76590;BME280;65471;55.908;37.880;2023-03-03T02:37:18;98194.94;;;0.40;80.82
76590;BME280;65471;55.908;37.880;2023-03-03T02:39:45;98202.72;;;0.34;81.20
76590;BME280;65471;55.908;37.880;2023-03-03T02:42:25;98192.28;;;0.40;80.89
76590;BME280;65471;55.908;37.880;2023-03-03T02:44:54;98192.91;;;0.42;81.14
76590;BME280;65471;55.908;37.880;2023-03-03T02:47:21;98201.91;;;0.47;80.76
76590;BME280;65471;55.908;37.880;2023-03-03T02:49:48;98202.31;;;0.51;80.67
76590;BME280;65471;55.908;37.880;2023-03-03T02:52:14;98193.91;;;0.54;80.65
76590;BME280;65471;55.908;37.880;2023-03-03T02:54:43;98201.88;;;0.61;80.28
76590;BME280;65471;55.908;37.880;2023-03-03T02:57:10;98212.09;;;0.64;79.83
76590;BME280;65471;55.908;37.880;2023-03-03T02:59:37;98198.00;;;0.63;80.34
76590;BME280;65471;55.908;37.880;2023-03-03T03:02:03;98202.09;;;0.66;79.91
76590;BME280;65471;55.908;37.880;2023-03-03T03:04:30;98204.94;;;0.71;80.09
76590;BME280;65471;55.908;37.880;2023-03-03T03:06:57;98203.53;;;0.68;79.94
76590;BME280;65471;55.908;37.880;2023-03-03T03:09:24;98196.78;;;0.66;79.72
76590;BME280;65471;55.908;37.880;2023-03-03T03:11:51;98187.56;;;0.55;80.06
76590;BME280;65471;55.908;37.880;2023-03-03T03:14:18;98193.91;;;0.67;80.08
76590;BME280;65471;55.908;37.880;2023-03-03T03:16:45;98187.75;;;0.67;79.47
76590;BME280;65471;55.908;37.880;2023-03-03T03:19:12;98186.94;;;0.66;79.79
76590;BME280;65471;55.908;37.880;2023-03-03T03:21:39;98184.50;;;0.65;80.20
76590;BME280;65471;55.908;37.880;2023-03-03T03:24:06;98173.06;;;0.64;80.57
76590;BME280;65471;55.908;37.880;2023-03-03T03:26:32;98176.09;;;0.61;79.97
76590;BME280;65471;55.908;37.880;2023-03-03T03:28:59;98178.56;;;0.63;80.34
76590;BME280;65471;55.908;37.880;2023-03-03T03:31:26;98166.69;;;0.65;80.02
76590;BME280;65471;55.908;37.880;2023-03-03T03:33:53;98166.69;;;0.65;80.26
76590;BME280;65471;55.908;37.880;2023-03-03T03:36:20;98152.38;;;0.66;79.93
76590;BME280;65471;55.908;37.880;2023-03-03T03:38:47;98176.94;;;0.62;79.88
76590;BME280;65471;55.908;37.880;2023-03-03T03:41:14;98148.09;;;0.45;79.72
76590;BME280;65471;55.908;37.880;2023-03-03T03:43:40;98160.34;;;0.60;80.60
76590;BME280;65471;55.908;37.880;2023-03-03T03:46:07;98150.53;;;0.60;80.28
76590;BME280;65471;55.908;37.880;2023-03-03T03:48:34;98155.88;;;0.60;80.13
76590;BME280;65471;55.908;37.880;2023-03-03T03:51:02;98154.00;;;0.61;80.44
76590;BME280;65471;55.908;37.880;2023-03-03T03:53:29;98146.84;;;0.61;80.35
76590;BME280;65471;55.908;37.880;2023-03-03T03:55:56;98155.25;;;0.58;80.61
76590;BME280;65471;55.908;37.880;2023-03-03T03:58:22;98155.28;;;0.51;80.68
76590;BME280;65471;55.908;37.880;2023-03-03T04:00:49;98147.88;;;0.47;80.60
76590;BME280;65471;55.908;37.880;2023-03-03T04:03:16;98150.34;;;0.48;80.53
76590;BME280;65471;55.908;37.880;2023-03-03T04:05:43;98147.50;;;0.50;81.05
76590;BME280;65471;55.908;37.880;2023-03-03T04:08:10;98152.63;;;0.51;81.02
76590;BME280;65471;55.908;37.880;2023-03-03T04:10:37;98152.19;;;0.55;81.14
76590;BME280;65471;55.908;37.880;2023-03-03T04:13:04;98141.34;;;0.56;80.88
76590;BME280;65471;55.908;37.880;2023-03-03T04:15:31;98133.78;;;0.53;81.06
76590;BME280;65471;55.908;37.880;2023-03-03T04:17:57;98133.78;;;0.53;81.05
76590;BME280;65471;55.908;37.880;2023-03-03T04:20:24;98128.25;;;0.41;81.20
76590;BME280;65471;55.908;37.880;2023-03-03T04:22:51;98133.56;;;0.55;81.18
76590;BME280;65471;55.908;37.880;2023-03-03T04:25:18;98144.63;;;0.51;80.72
76590;BME280;65471;55.908;37.880;2023-03-03T04:27:45;98136.44;;;0.53;81.41
76590;BME280;65471;55.908;37.880;2023-03-03T04:30:13;98123.38;;;0.51;81.33
76590;BME280;65471;55.908;37.880;2023-03-03T04:32:41;98140.53;;;0.42;81.39
76590;BME280;65471;55.908;37.880;2023-03-03T04:35:08;98135.84;;;0.44;81.65
76590;BME280;65471;55.908;37.880;2023-03-03T04:37:35;98138.69;;;0.43;81.94
76590;BME280;65471;55.908;37.880;2023-03-03T04:40:04;98142.81;;;0.39;81.67
76590;BME280;65471;55.908;37.880;2023-03-03T04:42:32;98134.63;;;0.40;82.23
76590;BME280;65471;55.908;37.880;2023-03-03T04:44:58;98135.44;;;0.41;81.61
76590;BME280;65471;55.908;37.880;2023-03-03T04:47:25;98125.22;;;0.44;82.13
76590;BME280;65471;55.908;37.880;2023-03-03T04:49:52;98136.66;;;0.45;82.23
76590;BME280;65471;55.908;37.880;2023-03-03T04:52:19;98134.38;;;0.48;82.00
76590;BME280;65471;55.908;37.880;2023-03-03T04:54:46;98124.16;;;0.52;82.45
76590;BME280;65471;55.908;37.880;2023-03-03T04:57:12;98136.03;;;0.56;82.45
76590;BME280;65471;55.908;37.880;2023-03-03T04:59:39;98133.78;;;0.53;81.79
76590;BME280;65471;55.908;37.880;2023-03-03T05:02:06;98131.72;;;0.55;82.00
76590;BME280;65471;55.908;37.880;2023-03-03T05:04:33;98129.91;;;0.56;82.26
76590;BME280;65471;55.908;37.880;2023-03-03T05:07:00;98140.34;;;0.57;82.04
76590;BME280;65471;55.908;37.880;2023-03-03T05:09:26;98135.59;;;0.59;82.06
76590;BME280;65471;55.908;37.880;2023-03-03T05:11:53;98135.81;;;0.64;81.91
76590;BME280;65471;55.908;37.880;2023-03-03T05:14:20;98138.84;;;0.68;82.06
76590;BME280;65471;55.908;37.880;2023-03-03T05:16:47;98132.31;;;0.71;82.21
76590;BME280;65471;55.908;37.880;2023-03-03T05:19:14;98135.19;;;0.76;82.20
76590;BME280;65471;55.908;37.880;2023-03-03T05:21:41;98141.50;;;0.75;81.82
76590;BME280;65471;55.908;37.880;2023-03-03T05:24:09;98142.94;;;0.77;82.22
76590;BME280;65471;55.908;37.880;2023-03-03T05:26:37;98133.94;;;0.72;81.52
76590;BME280;65471;55.908;37.880;2023-03-03T05:29:05;98137.22;;;0.74;82.26
76590;BME280;65471;55.908;37.880;2023-03-03T05:31:33;98134.75;;;0.72;82.21
76590;BME280;65471;55.908;37.880;2023-03-03T05:33:59;98129.44;;;0.65;81.85
76590;BME280;65471;55.908;37.880;2023-03-03T05:36:26;98133.16;;;0.64;82.40
76590;BME280;65471;55.908;37.880;2023-03-03T05:38:53;98135.97;;;0.69;82.23
76590;BME280;65471;55.908;37.880;2023-03-03T05:41:20;98138.84;;;0.75;82.32
76590;BME280;65471;55.908;37.880;2023-03-03T05:43:47;98143.53;;;0.73;81.89
76590;BME280;65471;55.908;37.880;2023-03-03T05:46:15;98140.72;;;0.74;81.53
76590;BME280;65471;55.908;37.880;2023-03-03T05:48:42;98142.31;;;0.75;81.66
76590;BME280;65471;55.908;37.880;2023-03-03T05:51:09;98140.88;;;0.73;81.97
76590;BME280;65471;55.908;37.880;2023-03-03T05:53:36;98148.88;;;0.73;82.29
76590;BME280;65471;55.908;37.880;2023-03-03T05:56:03;98139.66;;;0.75;82.29
76590;BME280;65471;55.908;37.880;2023-03-03T05:58:29;98139.06;;;0.80;82.35
76590;BME280;65471;55.908;37.880;2023-03-03T06:00:56;98136.78;;;0.83;82.26
76590;BME280;65471;55.908;37.880;2023-03-03T06:03:23;98141.28;;;0.83;81.73
76590;BME280;65471;55.908;37.880;2023-03-03T06:05:50;98141.91;;;0.78;81.64
76590;BME280;65471;55.908;37.880;2023-03-03T06:08:17;98144.56;;;0.78;81.65
76590;BME280;65471;55.908;37.880;2023-03-03T06:10:43;98144.59;;;0.72;81.95
76590;BME280;65471;55.908;37.880;2023-03-03T06:13:10;98154.19;;;0.73;82.38
76590;BME280;65471;55.908;37.880;2023-03-03T06:15:37;98132.31;;;0.64;81.96
76590;BME280;65471;55.908;37.880;2023-03-03T06:18:04;98149.69;;;0.80;81.79
76590;BME280;65471;55.908;37.880;2023-03-03T06:20:31;98154.38;;;0.78;81.92
76590;BME280;65471;55.908;37.880;2023-03-03T06:22:59;98154.16;;;0.86;82.35
76590;BME280;65471;55.908;37.880;2023-03-03T06:25:26;98152.53;;;0.92;81.44
76590;BME280;65471;55.908;37.880;2023-03-03T06:27:52;98149.44;;;0.95;81.28
76590;BME280;65471;55.908;37.880;2023-03-03T06:30:19;98158.22;;;0.95;81.22
76590;BME280;65471;55.908;37.880;2023-03-03T06:32:46;98153.94;;;0.94;80.91
76590;BME280;65471;55.908;37.880;2023-03-03T06:35:13;98155.16;;;0.98;81.06
76590;BME280;65471;55.908;37.880;2023-03-03T06:37:40;98149.81;;;1.05;80.18
76590;BME280;65471;55.908;37.880;2023-03-03T06:40:08;98146.91;;;1.13;80.41
76590;BME280;65471;55.908;37.880;2023-03-03T06:42:35;98153.81;;;1.21;80.57
76590;BME280;65471;55.908;37.880;2023-03-03T06:45:01;98132.78;;;1.13;80.01
76590;BME280;65471;55.908;37.880;2023-03-03T06:47:28;98148.91;;;1.25;79.43
76590;BME280;65471;55.908;37.880;2023-03-03T06:49:55;98150.78;;;1.24;79.81
76590;BME280;65471;55.908;37.880;2023-03-03T06:52:25;98149.34;;;1.22;80.31
76590;BME280;65471;55.908;37.880;2023-03-03T06:54:58;98142.56;;;1.26;80.21
76590;BME280;65471;55.908;37.880;2023-03-03T06:57:31;98157.91;;;1.24;79.81
76590;BME280;65471;55.908;37.880;2023-03-03T07:00:22;98156.69;;;1.26;79.77
76590;BME280;65471;55.908;37.880;2023-03-03T07:02:57;98139.13;;;1.12;78.89
76590;BME280;65471;55.908;37.880;2023-03-03T07:05:26;98157.91;;;1.24;78.94
76590;BME280;65471;55.908;37.880;2023-03-03T07:07:57;98160.00;;;1.22;79.10
76590;BME280;65471;55.908;37.880;2023-03-03T07:10:29;98161.22;;;1.19;78.27
76590;BME280;65471;55.908;37.880;2023-03-03T07:13:16;98162.66;;;1.15;78.72
76590;BME280;65471;55.908;37.880;2023-03-03T07:15:43;98168.81;;;1.15;78.71
76590;BME280;65471;55.908;37.880;2023-03-03T07:18:44;98159.00;;;1.16;78.47
76590;BME280;65471;55.908;37.880;2023-03-03T07:21:20;98165.09;;;1.23;78.94
76590;BME280;65471;55.908;37.880;2023-03-03T07:23:49;98158.34;;;1.27;78.32
76590;BME280;65471;55.908;37.880;2023-03-03T07:26:24;98159.75;;;1.30;78.59
76590;BME280;65471;55.908;37.880;2023-03-03T07:28:54;98157.25;;;1.35;78.32
76590;BME280;65471;55.908;37.880;2023-03-03T07:31:37;98156.03;;;1.37;77.56
76590;BME280;65471;55.908;37.880;2023-03-03T07:36:52;98155.44;;;1.35;77.01
76590;BME280;65471;55.908;37.880;2023-03-03T07:39:39;98165.25;;;1.35;76.81
76590;BME280;65471;55.908;37.880;2023-03-03T07:45:29;98167.94;;;1.28;77.08
76590;BME280;65471;55.908;37.880;2023-03-03T07:48:37;98170.00;;;1.26;76.39
76590;BME280;65471;55.908;37.880;2023-03-03T07:51:15;98168.16;;;1.27;76.89
76590;BME280;65471;55.908;37.880;2023-03-03T07:53:44;98175.75;;;1.23;76.82
76590;BME280;65471;55.908;37.880;2023-03-03T07:56:29;98176.56;;;1.24;76.75
76590;BME280;65471;55.908;37.880;2023-03-03T07:58:57;98170.00;;;1.26;76.05
76590;BME280;65471;55.908;37.880;2023-03-03T08:04:19;98183.88;;;1.35;75.59
76590;BME280;65471;55.908;37.880;2023-03-03T08:06:50;98160.34;;;1.32;75.79
76590;BME280;65471;55.908;37.880;2023-03-03T08:14:37;98175.06;;;1.41;74.73
76590;BME280;65471;55.908;37.880;2023-03-03T08:17:18;98168.16;;;1.27;74.34
76590;BME280;65471;55.908;37.880;2023-03-03T08:19:46;98177.13;;;1.32;74.71
76590;BME280;65471;55.908;37.880;2023-03-03T08:22:37;98180.84;;;1.31;74.47
76590;BME280;65471;55.908;37.880;2023-03-03T08:25:04;98183.72;;;1.30;74.40
76590;BME280;65471;55.908;37.880;2023-03-03T08:27:30;98175.72;;;1.30;75.06
76590;BME280;65471;55.908;37.880;2023-03-03T08:29:57;98187.38;;;1.35;74.31
76590;BME280;65471;55.908;37.880;2023-03-03T08:32:24;98187.56;;;1.41;74.42
76590;BME280;65471;55.908;37.880;2023-03-03T08:34:51;98183.06;;;1.41;74.67
76590;BME280;65471;55.908;37.880;2023-03-03T08:37:18;98197.78;;;1.44;74.73
76590;BME280;65471;55.908;37.880;2023-03-03T08:39:44;98192.28;;;1.38;74.15
76590;BME280;65471;55.908;37.880;2023-03-03T08:42:11;98181.66;;;1.32;74.16
76590;BME280;65471;55.908;37.880;2023-03-03T08:44:41;98192.66;;;1.42;74.57
76590;BME280;65471;55.908;37.880;2023-03-03T08:47:08;98194.09;;;1.45;74.46
76590;BME280;65471;55.908;37.880;2023-03-03T08:49:35;98188.31;;;1.54;73.85
76590;BME280;65471;55.908;37.880;2023-03-03T08:52:02;98170.34;;;1.43;74.38
76590;BME280;65471;55.908;37.880;2023-03-03T08:54:29;98187.66;;;1.59;74.23
76590;BME280;65471;55.908;37.880;2023-03-03T08:56:56;98199.56;;;1.57;73.59
76590;BME280;65471;55.908;37.880;2023-03-03T08:59:23;98199.63;;;1.50;73.80
76590;BME280;65471;55.908;37.880;2023-03-03T09:01:49;98190.78;;;1.49;74.26
76590;BME280;65471;55.908;37.880;2023-03-03T09:04:16;98205.94;;;1.55;74.03
76590;BME280;65471;55.908;37.880;2023-03-03T09:06:43;98207.75;;;1.62;74.31
76590;BME280;65471;55.908;37.880;2023-03-03T09:09:10;98199.53;;;1.63;73.80
76590;BME280;65471;55.908;37.880;2023-03-03T09:11:37;98206.88;;;1.68;73.76
76590;BME280;65471;55.908;37.880;2023-03-03T09:14:11;98194.41;;;1.68;73.39
76590;BME280;65471;55.908;37.880;2023-03-03T09:16:41;98199.09;;;1.66;72.89
76590;BME280;65471;55.908;37.880;2023-03-03T09:19:27;98202.97;;;1.70;73.34
76590;BME280;65471;55.908;37.880;2023-03-03T09:22:01;98193.31;;;1.76;73.34
76590;BME280;65471;55.908;37.880;2023-03-03T09:24:30;98201.03;;;1.91;73.04
76590;BME280;65471;55.908;37.880;2023-03-03T09:26:58;98199.75;;;2.00;72.86
76590;BME280;65471;55.908;37.880;2023-03-03T09:29:29;98204.81;;;2.09;73.19
76590;BME280;65471;55.908;37.880;2023-03-03T09:31:58;98209.91;;;2.17;73.10
76590;BME280;65471;55.908;37.880;2023-03-03T09:39:47;98200.31;;;2.34;71.85
76590;BME280;65471;55.908;37.880;2023-03-03T09:47:54;98197.47;;;2.54;71.00
76590;BME280;65471;55.908;37.880;2023-03-03T09:58:55;98203.16;;;2.39;71.22
76590;BME280;65471;55.908;37.880;2023-03-03T10:01:41;98199.28;;;2.35;71.32
76590;BME280;65471;55.908;37.880;2023-03-03T10:04:22;98201.31;;;2.40;71.14
76590;BME280;65471;55.908;37.880;2023-03-03T10:15:22;98194.88;;;2.48;71.24
76590;BME280;65471;55.908;37.880;2023-03-03T10:18:18;98191.56;;;2.52;71.53
76590;BME280;65471;55.908;37.880;2023-03-03T10:21:17;98191.03;;;2.62;71.09
76590;BME280;65471;55.908;37.880;2023-03-03T10:23:53;98195.56;;;2.62;71.29
76590;BME280;65471;55.908;37.880;2023-03-03T10:26:41;98189.44;;;2.61;71.56
76590;BME280;65471;55.908;37.880;2023-03-03T10:32:29;98193.06;;;2.67;70.48
76590;BME280;65471;55.908;37.880;2023-03-03T10:44:12;98192.19;;;2.73;70.63
76590;BME280;65471;55.908;37.880;2023-03-03T11:02:41;98200.41;;;3.15;68.21
76590;BME280;65471;55.908;37.880;2023-03-03T11:05:42;98198.75;;;3.14;68.14
76590;BME280;65471;55.908;37.880;2023-03-03T11:08:17;98197.94;;;3.14;67.40
76590;BME280;65471;55.908;37.880;2023-03-03T11:11:16;98195.06;;;3.15;68.27
76590;BME280;65471;55.908;37.880;2023-03-03T11:16:47;98200.00;;;3.49;67.49
76590;BME280;65471;55.908;37.880;2023-03-03T11:27:54;98203.47;;;3.31;67.27
76590;BME280;65471;55.908;37.880;2023-03-03T11:30:36;98210.47;;;3.32;67.87
76590;BME280;65471;55.908;37.880;2023-03-03T11:33:14;98203.72;;;3.29;67.68
76590;BME280;65471;55.908;37.880;2023-03-03T11:38:44;98203.94;;;3.09;68.59
76590;BME280;65471;55.908;37.880;2023-03-03T11:43:50;98206.59;;;3.09;68.12
76590;BME280;65471;55.908;37.880;2023-03-03T11:46:24;98203.06;;;2.97;68.42
76590;BME280;65471;55.908;37.880;2023-03-03T11:49:27;98214.53;;;2.97;68.71
76590;BME280;65471;55.908;37.880;2023-03-03T11:52:10;98207.28;;;3.04;67.75
76590;BME280;65471;55.908;37.880;2023-03-03T11:54:47;98212.25;;;3.01;68.22
76590;BME280;65471;55.908;37.880;2023-03-03T11:57:41;98195.38;;;2.82;68.31
76590;BME280;65471;55.908;37.880;2023-03-03T12:00:19;98204.97;;;2.89;68.52
76590;BME280;65471;55.908;37.880;2023-03-03T12:03:15;98212.97;;;2.89;68.71
76590;BME280;65471;55.908;37.880;2023-03-03T12:06:16;98208.63;;;2.95;67.92
76590;BME280;65471;55.908;37.880;2023-03-03T12:12:05;98207.06;;;3.06;67.79
76590;BME280;65471;55.908;37.880;2023-03-03T12:14:54;98206.69;;;3.02;67.41
76590;BME280;65471;55.908;37.880;2023-03-03T12:20:27;98207.66;;;2.89;66.96
76590;BME280;65471;55.908;37.880;2023-03-03T12:28:37;98205.84;;;2.83;68.00
76590;BME280;65471;55.908;37.880;2023-03-03T12:33:56;98204.56;;;2.67;67.64
76590;BME280;65471;55.908;37.880;2023-03-03T12:36:50;98204.25;;;2.57;67.67
76590;BME280;65471;55.908;37.880;2023-03-03T12:39:29;98203.56;;;2.62;67.91
76590;BME280;65471;55.908;37.880;2023-03-03T12:47:38;98209.66;;;2.69;67.88
76590;BME280;65471;55.908;37.880;2023-03-03T12:53:05;98210.91;;;2.66;68.26
76590;BME280;65471;55.908;37.880;2023-03-03T13:01:17;98214.47;;;2.60;68.01
76590;BME280;65471;55.908;37.880;2023-03-03T13:04:13;98218.38;;;2.57;68.25
76590;BME280;65471;55.908;37.880;2023-03-03T13:06:58;98218.16;;;2.59;67.78
76590;BME280;65471;55.908;37.880;2023-03-03T13:18:06;98209.09;;;2.41;68.37
76590;BME280;65471;55.908;37.880;2023-03-03T13:20:50;98222.59;;;2.47;67.49
76590;BME280;65471;55.908;37.880;2023-03-03T13:24:02;98229.72;;;2.53;67.77
76590;BME280;65471;55.908;37.880;2023-03-03T13:28:56;98207.63;;;2.46;67.60
76590;BME280;65471;55.908;37.880;2023-03-03T13:31:39;98227.41;;;2.56;67.44
76590;BME280;65471;55.908;37.880;2023-03-03T13:34:22;98224.97;;;2.55;67.73
76590;BME280;65471;55.908;37.880;2023-03-03T13:36:57;98220.50;;;2.49;67.83
76590;BME280;65471;55.908;37.880;2023-03-03T13:39:32;98227.06;;;2.53;67.71
76590;BME280;65471;55.908;37.880;2023-03-03T13:42:03;98220.69;;;2.54;67.90
76590;BME280;65471;55.908;37.880;2023-03-03T13:44:41;98215.94;;;2.56;67.64
76590;BME280;65471;55.908;37.880;2023-03-03T13:47:24;98222.31;;;2.55;67.36
76590;BME280;65471;55.908;37.880;2023-03-03T13:50:22;98216.38;;;2.53;67.37
76590;BME280;65471;55.908;37.880;2023-03-03T13:55:42;98217.25;;;2.47;67.17
76590;BME280;65471;55.908;37.880;2023-03-03T13:58:13;98214.41;;;2.41;66.47
76590;BME280;65471;55.908;37.880;2023-03-03T14:00:56;98215.88;;;2.37;66.69
76590;BME280;65471;55.908;37.880;2023-03-03T14:03:39;98213.03;;;2.32;67.42
76590;BME280;65471;55.908;37.880;2023-03-03T14:06:18;98208.09;;;2.36;67.25
76590;BME280;65471;55.908;37.880;2023-03-03T14:16:48;98210.59;;;2.31;67.54
76590;BME280;65471;55.908;37.880;2023-03-03T14:19:23;98211.44;;;2.31;67.11
76590;BME280;65471;55.908;37.880;2023-03-03T14:22:24;98220.66;;;2.29;67.25
76590;BME280;65471;55.908;37.880;2023-03-03T14:24:57;98209.78;;;2.30;67.33
76590;BME280;65471;55.908;37.880;2023-03-03T14:27:32;98216.53;;;2.33;67.16
76590;BME280;65471;55.908;37.880;2023-03-03T14:35:40;98222.03;;;2.13;66.88
76590;BME280;65471;55.908;37.880;2023-03-03T14:40:36;98200.44;;;1.82;67.10
76590;BME280;65471;55.908;37.880;2023-03-03T14:43:19;98221.09;;;1.94;67.28
76590;BME280;65471;55.908;37.880;2023-03-03T14:45:47;98228.28;;;1.93;66.94
76590;BME280;65471;55.908;37.880;2023-03-03T14:50:48;98222.63;;;1.76;66.78
76590;BME280;65471;55.908;37.880;2023-03-03T14:53:20;98232.28;;;1.70;67.00
76590;BME280;65471;55.908;37.880;2023-03-03T14:55:49;98234.56;;;1.67;67.41
76590;BME280;65471;55.908;37.880;2023-03-03T14:58:37;98245.03;;;1.68;67.63
76590;BME280;65471;55.908;37.880;2023-03-03T15:03:34;98239.63;;;1.75;66.83
76590;BME280;65471;55.908;37.880;2023-03-03T15:06:12;98247.41;;;1.77;67.65
76590;BME280;65471;55.908;37.880;2023-03-03T15:08:53;98248.25;;;1.77;67.18
76590;BME280;65471;55.908;37.880;2023-03-03T15:11:26;98244.97;;;1.75;66.32
76590;BME280;65471;55.908;37.880;2023-03-03T15:14:16;98242.53;;;1.73;67.58
76590;BME280;65471;55.908;37.880;2023-03-03T15:16:44;98238.06;;;1.61;67.51
76590;BME280;65471;55.908;37.880;2023-03-03T15:19:24;98257.47;;;1.75;67.56
76590;BME280;65471;55.908;37.880;2023-03-03T15:24:38;98263.00;;;1.80;67.41
76590;BME280;65471;55.908;37.880;2023-03-03T15:27:16;98256.25;;;1.77;67.32
76590;BME280;65471;55.908;37.880;2023-03-03T15:32:32;98263.59;;;1.82;67.13
76590;BME280;65471;55.908;37.880;2023-03-03T15:37:44;98267.47;;;1.86;67.57
76590;BME280;65471;55.908;37.880;2023-03-03T15:40:26;98262.75;;;1.88;67.50
76590;BME280;65471;55.908;37.880;2023-03-03T15:54:48;98266.72;;;1.65;68.73
76590;BME280;65471;55.908;37.880;2023-03-03T16:02:49;98267.94;;;1.69;69.11
76590;BME280;65471;55.908;37.880;2023-03-03T16:05:23;98263.84;;;1.73;68.36
76590;BME280;65471;55.908;37.880;2023-03-03T16:07:59;98266.69;;;1.79;68.33
76590;BME280;65471;55.908;37.880;2023-03-03T16:10:36;98261.38;;;1.79;68.16
76590;BME280;65471;55.908;37.880;2023-03-03T16:27:20;98263.81;;;1.80;68.60
76590;BME280;65471;55.908;37.880;2023-03-03T16:32:46;98262.78;;;1.81;68.38
76590;BME280;65471;55.908;37.880;2023-03-03T16:35:16;98267.72;;;1.78;68.52
76590;BME280;65471;55.908;37.880;2023-03-03T16:41:03;98255.91;;;1.67;68.89
76590;BME280;65471;55.908;37.880;2023-03-03T16:46:36;98264.06;;;1.65;68.87
76590;BME280;65471;55.908;37.880;2023-03-03T16:49:16;98263.88;;;1.67;68.06
76590;BME280;65471;55.908;37.880;2023-03-03T16:54:34;98270.03;;;1.67;69.04
76590;BME280;65471;55.908;37.880;2023-03-03T17:16:32;98256.03;;;1.79;68.18
76590;BME280;65471;55.908;37.880;2023-03-03T17:33:02;98258.69;;;1.79;68.12
76590;BME280;65471;55.908;37.880;2023-03-03T17:46:36;98255.19;;;1.85;68.60
76590;BME280;65471;55.908;37.880;2023-03-03T18:08:24;98265.84;;;1.85;68.01